createdAt,value
2017-11-10T00:00:18.708Z,23.70
2017-11-10T00:02:47.779Z,28.33
2017-11-10T00:05:16.523Z,27.93
2017-11-10T00:07:44.872Z,25.83
2017-11-10T00:10:13.258Z,29.43
2017-11-10T00:12:41.645Z,30.20
2017-11-10T00:15:10.043Z,27.70
2017-11-10T00:17:39.434Z,28.90
2017-11-10T00:20:07.971Z,28.57
2017-11-10T00:22:36.323Z,30.03
2017-11-10T00:25:04.349Z,32.50
2017-11-10T00:27:32.720Z,30.90
2017-11-10T00:30:01.953Z,29.70
2017-11-10T00:32:31.114Z,28.40
2017-11-10T00:34:59.476Z,29.70
2017-11-10T00:37:27.843Z,27.20
2017-11-10T00:39:56.232Z,25.90
2017-11-10T00:42:25.409Z,29.30
2017-11-10T00:44:54.664Z,26.80
2017-11-10T00:47:23.017Z,24.50
2017-11-10T00:49:51.421Z,25.50
2017-11-10T00:52:20.050Z,26.00
2017-11-10T00:54:48.507Z,23.67
2017-11-10T00:57:17.308Z,26.33
2017-11-10T00:59:46.312Z,26.17
2017-11-10T01:02:15.248Z,24.17
2017-11-10T01:04:43.755Z,25.33
2017-11-10T01:07:13.124Z,24.07
2017-11-10T01:09:42.991Z,24.07
2017-11-10T01:12:12.254Z,24.43
2017-11-10T01:14:40.727Z,24.43
2017-11-10T01:17:09.342Z,23.20
2017-11-10T01:19:37.701Z,22.77
2017-11-10T01:22:07.466Z,22.67
2017-11-10T01:24:35.840Z,21.33
2017-11-10T01:27:05.234Z,23.17
2017-11-10T01:29:34.364Z,21.47
2017-11-10T01:32:02.823Z,21.83
2017-11-10T01:34:32.058Z,20.70
2017-11-10T01:37:00.097Z,20.73
2017-11-10T01:39:28.467Z,21.80
2017-11-10T01:41:57.482Z,20.30
2017-11-10T01:44:25.852Z,20.57
2017-11-10T01:46:54.528Z,21.40
2017-11-10T01:49:28.618Z,18.70
2017-11-10T01:51:57.754Z,21.13
2017-11-10T01:54:26.576Z,20.53
2017-11-10T01:56:54.907Z,19.97
2017-11-10T01:59:23.140Z,20.60
2017-11-10T02:01:51.782Z,20.73
2017-11-10T02:04:20.147Z,20.93
2017-11-10T02:06:48.513Z,22.03
2017-11-10T02:09:16.976Z,22.20
2017-11-10T02:11:45.458Z,22.33
2017-11-10T02:14:13.902Z,22.10
2017-11-10T02:16:42.252Z,21.80
2017-11-10T02:19:11.778Z,22.50
2017-11-10T02:21:47.217Z,21.70
2017-11-10T02:24:16.087Z,20.60
2017-11-10T02:26:43.986Z,21.93
2017-11-10T02:29:14.241Z,24.53
2017-11-10T02:31:42.418Z,24.30
2017-11-10T02:34:13.403Z,21.83
2017-11-10T02:36:42.815Z,22.60
2017-11-10T02:39:11.107Z,21.37
2017-11-10T02:41:39.446Z,22.37
2017-11-10T02:44:08.459Z,22.80
2017-11-10T02:46:36.806Z,23.77
2017-11-10T02:49:06.151Z,23.30
2017-11-10T02:51:34.438Z,23.73
2017-11-10T02:54:03.582Z,23.33
2017-11-10T02:56:32.913Z,24.53
2017-11-10T02:59:01.298Z,24.13
2017-11-10T03:01:29.562Z,24.60
2017-11-10T03:03:58.453Z,21.60
2017-11-10T03:06:26.965Z,22.80
2017-11-10T03:08:55.973Z,23.33
2017-11-10T03:11:26.104Z,24.30
2017-11-10T03:13:54.111Z,21.43
2017-11-10T03:16:23.066Z,21.77
2017-11-10T03:18:51.421Z,22.43
2017-11-10T03:21:19.792Z,22.03
2017-11-10T03:23:49.211Z,23.50
2017-11-10T03:26:17.860Z,22.50
2017-11-10T03:28:46.243Z,23.63
2017-11-10T03:31:14.592Z,22.90
2017-11-10T03:33:43.808Z,23.63
2017-11-10T03:36:12.287Z,23.00
2017-11-10T03:38:40.697Z,23.17
2017-11-10T03:41:09.327Z,22.13
2017-11-10T03:43:37.326Z,21.63
2017-11-10T03:46:05.038Z,22.37
2017-11-10T03:48:34.233Z,22.30
2017-11-10T03:51:02.613Z,21.87
2017-11-10T03:53:30.959Z,22.10
2017-11-10T03:56:00.082Z,21.93
2017-11-10T03:58:29.068Z,22.33
2017-11-10T04:00:57.109Z,21.87
2017-11-10T04:03:26.740Z,22.20
2017-11-10T04:05:55.219Z,21.63
2017-11-10T04:08:23.588Z,20.80
2017-11-10T04:10:51.691Z,21.13
2017-11-10T04:13:20.702Z,22.37
2017-11-10T04:15:49.059Z,21.17
2017-11-10T04:18:17.426Z,22.10
2017-11-10T04:20:45.952Z,21.57
2017-11-10T04:23:14.014Z,21.67
2017-11-10T04:25:42.389Z,22.93
2017-11-10T04:28:10.797Z,22.67
2017-11-10T04:30:39.164Z,22.70
2017-11-10T04:33:07.784Z,21.73
2017-11-10T04:35:36.059Z,22.73
2017-11-10T04:38:04.067Z,22.93
2017-11-10T04:40:32.094Z,23.97
2017-11-10T04:43:00.129Z,23.10
2017-11-10T04:45:28.499Z,23.00
2017-11-10T04:47:56.867Z,23.90
2017-11-10T04:50:24.891Z,22.90
2017-11-10T04:52:53.519Z,22.97
2017-11-10T04:55:21.888Z,23.33
2017-11-10T04:57:50.251Z,24.17
2017-11-10T05:00:17.952Z,22.60
2017-11-10T05:02:46.328Z,22.40
2017-11-10T05:05:14.691Z,22.80
2017-11-10T05:07:43.978Z,23.80
2017-11-10T05:10:12.465Z,23.47
2017-11-10T05:12:41.098Z,22.67
2017-11-10T05:15:09.464Z,22.37
2017-11-10T05:17:37.819Z,22.47
2017-11-10T05:20:06.196Z,22.90
2017-11-10T05:22:34.668Z,22.40
2017-11-10T05:25:03.043Z,24.17
2017-11-10T05:27:31.223Z,23.43
2017-11-10T05:29:59.391Z,23.17
2017-11-10T05:32:27.282Z,22.80
2017-11-10T05:34:55.449Z,24.30
2017-11-10T05:37:23.119Z,24.40
2017-11-10T05:39:51.301Z,24.10
2017-11-10T05:42:19.740Z,23.73
2017-11-10T05:44:48.143Z,21.23
2017-11-10T05:47:16.579Z,23.70
2017-11-10T05:49:44.747Z,22.83
2017-11-10T05:52:12.938Z,21.53
2017-11-10T05:54:41.273Z,21.47
2017-11-10T05:57:09.721Z,23.03
2017-11-10T05:59:37.196Z,22.57
2017-11-10T06:02:04.867Z,21.30
2017-11-10T06:04:32.786Z,22.07
2017-11-10T06:07:01.727Z,21.20
2017-11-10T06:09:30.081Z,23.30
2017-11-10T06:11:58.863Z,22.57
2017-11-10T06:14:28.524Z,22.53
2017-11-10T06:16:56.876Z,21.43
2017-11-10T06:19:25.256Z,22.17
2017-11-10T06:21:53.868Z,22.63
2017-11-10T06:24:21.879Z,23.10
2017-11-10T06:26:51.019Z,23.37
2017-11-10T06:29:19.386Z,22.57
2017-11-10T06:31:47.757Z,22.20
2017-11-10T06:34:16.136Z,21.83
2017-11-10T06:36:44.510Z,19.73
2017-11-10T06:39:12.887Z,20.17
2017-11-10T06:41:41.254Z,21.27
2017-11-10T06:44:09.631Z,20.10
2017-11-10T06:46:38.035Z,21.90
2017-11-10T06:49:06.655Z,22.90
2017-11-10T06:51:35.009Z,22.40
2017-11-10T06:54:03.371Z,22.77
2017-11-10T06:56:31.742Z,22.30
2017-11-10T06:59:00.105Z,22.37
2017-11-10T07:01:28.140Z,24.03
2017-11-10T07:03:57.470Z,22.50
2017-11-10T07:06:25.491Z,22.07
2017-11-10T07:08:54.628Z,23.20
2017-11-10T07:11:23.010Z,22.50
2017-11-10T07:13:51.797Z,22.40
2017-11-10T07:16:20.151Z,24.20
2017-11-10T07:18:50.288Z,23.63
2017-11-10T07:21:18.646Z,25.20
2017-11-10T07:23:47.010Z,25.07
2017-11-10T07:26:15.410Z,23.70
2017-11-10T07:28:43.988Z,25.17
2017-11-10T07:31:12.340Z,25.70
2017-11-10T07:33:41.356Z,26.57
2017-11-10T07:36:09.715Z,25.73
2017-11-10T07:38:38.072Z,25.73
2017-11-10T07:41:06.710Z,22.87
2017-11-10T07:43:35.077Z,22.00
2017-11-10T07:46:03.703Z,22.10
2017-11-10T07:48:32.067Z,20.93
2017-11-10T07:51:00.444Z,21.50
2017-11-10T07:53:29.127Z,21.70
2017-11-10T07:55:57.742Z,22.07
2017-11-10T07:58:26.123Z,21.40
2017-11-10T08:00:54.521Z,20.07
2017-11-10T08:03:22.886Z,21.30
2017-11-10T08:05:51.503Z,19.73
2017-11-10T08:08:20.153Z,18.80
2017-11-10T08:10:48.543Z,18.43
2017-11-10T08:13:17.125Z,19.87
2017-11-10T08:15:45.492Z,18.37
2017-11-10T08:18:13.896Z,19.10
2017-11-10T08:20:42.299Z,18.73
2017-11-10T08:23:11.252Z,17.30
2017-11-10T08:25:39.616Z,18.97
2017-11-10T08:28:08.991Z,18.80
2017-11-10T08:30:37.681Z,19.07
2017-11-10T08:33:06.120Z,19.00
2017-11-10T08:35:35.255Z,18.00
2017-11-10T08:38:03.642Z,18.40
2017-11-10T08:40:32.012Z,18.13
2017-11-10T08:43:00.399Z,17.50
2017-11-10T08:45:29.069Z,16.37
2017-11-10T08:47:57.445Z,16.90
2017-11-10T08:50:25.858Z,16.33
2017-11-10T08:52:54.248Z,16.43
2017-11-10T08:55:24.141Z,15.80
2017-11-10T08:57:52.492Z,15.40
2017-11-10T09:00:20.903Z,15.17
2017-11-10T09:02:49.920Z,15.70
2017-11-10T09:05:18.097Z,14.63
2017-11-10T09:07:46.460Z,14.27
2017-11-10T09:10:14.640Z,13.80
2017-11-10T09:12:44.776Z,13.93
2017-11-10T09:15:13.194Z,14.63
2017-11-10T09:17:41.370Z,13.80
2017-11-10T09:20:10.142Z,13.57
2017-11-10T09:22:38.832Z,13.70
2017-11-10T09:25:07.078Z,13.17
2017-11-10T09:27:35.150Z,14.10
2017-11-10T09:30:08.523Z,13.57
2017-11-10T09:32:50.023Z,13.48
2017-11-10T09:38:32.375Z,13.13
2017-11-10T09:41:01.687Z,13.00
2017-11-10T09:43:46.371Z,13.00
2017-11-10T09:46:19.186Z,12.90
2017-11-10T09:48:52.791Z,11.90
2017-11-10T09:51:26.271Z,10.83
2017-11-10T09:53:54.448Z,11.57
2017-11-10T09:56:39.691Z,11.47
2017-11-10T09:59:13.619Z,10.13
2017-11-10T10:01:47.745Z,11.00
2017-11-10T10:04:21.547Z,12.10
2017-11-10T10:06:50.739Z,10.67
2017-11-10T10:09:24.463Z,11.70
2017-11-10T10:15:08.078Z,11.50
2017-11-10T10:17:41.922Z,11.60
2017-11-10T10:20:15.684Z,11.30
2017-11-10T10:22:44.350Z,11.23
2017-11-10T10:25:13.423Z,10.83
2017-11-10T10:27:42.225Z,10.70
2017-11-10T10:30:10.729Z,11.60
2017-11-10T10:32:39.108Z,10.90
2017-11-10T10:35:07.133Z,11.37
2017-11-10T10:37:35.954Z,11.30
2017-11-10T10:40:03.435Z,11.63
2017-11-10T10:42:31.828Z,11.63
2017-11-10T10:45:00.368Z,11.70
2017-11-10T10:47:28.801Z,12.30
2017-11-10T10:49:57.939Z,12.40
2017-11-10T10:52:26.426Z,12.20
2017-11-10T10:54:54.814Z,12.80
2017-11-10T10:57:23.170Z,12.80
2017-11-10T10:59:51.556Z,13.87
2017-11-10T11:02:20.164Z,13.70
2017-11-10T11:04:48.535Z,14.10
2017-11-10T11:07:16.913Z,14.57
2017-11-10T11:09:45.355Z,14.90
2017-11-10T11:12:13.800Z,14.53
2017-11-10T11:14:42.221Z,15.07
2017-11-10T11:17:10.582Z,15.97
2017-11-10T11:19:38.775Z,14.60
2017-11-10T11:22:07.141Z,15.03
2017-11-10T11:24:35.524Z,13.97
2017-11-10T11:27:03.988Z,15.40
2017-11-10T11:29:32.359Z,14.27
2017-11-10T11:32:00.730Z,16.60
2017-11-10T11:34:29.094Z,16.30
2017-11-10T11:36:57.469Z,15.37
2017-11-10T11:39:26.093Z,14.40
2017-11-10T11:41:54.552Z,14.40
2017-11-10T11:44:22.909Z,14.40
2017-11-10T11:46:51.535Z,15.80
2017-11-10T11:49:19.905Z,16.20
2017-11-10T11:51:48.275Z,17.40
2017-11-10T11:54:16.645Z,16.20
2017-11-10T11:56:45.045Z,15.60
2017-11-10T11:59:14.153Z,16.60
2017-11-10T12:01:42.566Z,14.47
2017-11-10T12:04:10.932Z,13.10
2017-11-10T12:06:40.121Z,11.20
2017-11-10T12:09:08.910Z,10.33
2017-11-10T12:11:37.265Z,9.10
2017-11-10T12:14:05.939Z,8.00
2017-11-10T12:16:34.310Z,7.30
2017-11-10T12:19:02.745Z,6.90
2017-11-10T12:21:30.480Z,5.90
2017-11-10T12:23:58.170Z,6.10
2017-11-10T12:26:26.550Z,6.50
2017-11-10T12:28:54.235Z,5.80
2017-11-10T12:31:22.423Z,6.30
2017-11-10T12:33:50.806Z,6.27
2017-11-10T12:36:19.198Z,6.93
2017-11-10T12:38:47.568Z,7.17
2017-11-10T12:41:15.842Z,7.07
2017-11-10T12:43:44.994Z,7.00
2017-11-10T12:46:13.372Z,8.00
2017-11-10T12:48:41.737Z,8.27
2017-11-10T12:51:10.361Z,9.23
2017-11-10T12:53:38.730Z,8.40
2017-11-10T12:56:07.362Z,8.10
2017-11-10T12:58:36.639Z,8.33
2017-11-10T13:01:04.727Z,8.70
2017-11-10T13:03:33.162Z,8.50
2017-11-10T13:06:01.181Z,8.40
2017-11-10T13:08:29.541Z,9.57
2017-11-10T13:10:57.975Z,8.90
2017-11-10T13:13:27.145Z,10.30
2017-11-10T13:15:56.220Z,9.13
2017-11-10T13:18:24.558Z,10.60
2017-11-10T13:20:52.764Z,9.90
2017-11-10T13:23:21.239Z,9.70
2017-11-10T13:25:50.168Z,9.53
2017-11-10T13:28:18.535Z,9.33
2017-11-10T13:30:46.895Z,10.70
2017-11-10T13:33:15.292Z,9.40
2017-11-10T13:35:43.729Z,9.20
2017-11-10T13:38:12.098Z,9.63
2017-11-10T13:40:40.585Z,9.73
2017-11-10T13:43:09.799Z,10.20
2017-11-10T13:45:38.345Z,10.17
2017-11-10T13:48:07.842Z,9.70
2017-11-10T13:50:37.671Z,9.53
2017-11-10T13:53:06.357Z,9.37
2017-11-10T13:55:36.661Z,9.60
2017-11-10T13:58:05.119Z,9.40
2017-11-10T14:00:34.833Z,9.70
2017-11-10T14:03:04.057Z,9.53
2017-11-10T14:05:32.481Z,9.20
2017-11-10T14:08:03.601Z,9.40
2017-11-10T14:10:32.156Z,10.33
2017-11-10T14:13:00.938Z,9.30
2017-11-10T14:15:30.317Z,9.73
2017-11-10T14:17:59.128Z,10.23
2017-11-10T14:20:28.541Z,7.47
2017-11-10T14:22:56.969Z,5.13
2017-11-10T14:25:26.018Z,5.00
2017-11-10T14:27:54.385Z,5.47
2017-11-10T14:30:23.594Z,6.50
2017-11-10T14:32:52.047Z,6.53
2017-11-10T14:35:21.354Z,8.10
2017-11-10T14:37:50.664Z,7.63
2017-11-10T14:40:19.170Z,9.17
2017-11-10T14:42:47.648Z,7.13
2017-11-10T14:45:16.029Z,5.73
2017-11-10T14:47:45.332Z,5.57
2017-11-10T14:50:13.827Z,5.23
2017-11-10T14:52:42.635Z,5.23
2017-11-10T14:55:11.850Z,4.83
2017-11-10T14:57:41.035Z,5.70
2017-11-10T15:00:09.913Z,6.40
2017-11-10T15:02:38.369Z,5.30
2017-11-10T15:05:07.216Z,6.00
2017-11-10T15:07:35.653Z,6.20
2017-11-10T15:10:04.534Z,6.20
2017-11-10T15:12:33.939Z,5.43
2017-11-10T15:15:03.867Z,6.80
2017-11-10T15:17:33.960Z,5.93
2017-11-10T15:20:03.713Z,5.90
2017-11-10T15:22:34.385Z,6.40
2017-11-10T15:25:04.313Z,5.60
2017-11-10T15:27:35.110Z,6.13
2017-11-10T15:30:05.076Z,5.13
2017-11-10T15:32:35.762Z,4.90
2017-11-10T15:35:05.598Z,4.63
2017-11-10T15:37:35.908Z,4.03
2017-11-10T15:40:06.253Z,3.70
2017-11-10T15:42:36.013Z,3.43
2017-11-10T15:45:06.049Z,3.43
2017-11-10T15:47:36.761Z,3.37
2017-11-10T15:50:06.419Z,3.07
2017-11-10T15:52:37.904Z,2.70
2017-11-10T15:55:07.739Z,3.00
2017-11-10T15:57:38.419Z,2.40
2017-11-10T16:00:08.476Z,2.90
2017-11-10T16:02:38.503Z,2.60
2017-11-10T16:05:08.312Z,2.83
2017-11-10T16:07:38.168Z,3.93
2017-11-10T16:10:08.354Z,3.07
2017-11-10T16:12:39.097Z,3.50
2017-11-10T16:15:08.980Z,3.07
2017-11-10T16:17:39.019Z,2.97
2017-11-10T16:20:09.806Z,2.70
2017-11-10T16:22:39.556Z,3.03
2017-11-10T16:25:09.500Z,3.50
2017-11-10T16:27:39.667Z,3.30
2017-11-10T16:30:09.783Z,3.83
2017-11-10T16:32:39.537Z,3.43
2017-11-10T16:35:09.375Z,3.20
2017-11-10T16:37:39.419Z,3.13
2017-11-10T16:40:09.343Z,3.13
2017-11-10T16:42:39.112Z,4.07
2017-11-10T16:45:08.886Z,3.50
2017-11-10T16:47:38.705Z,3.13
2017-11-10T16:50:08.820Z,3.77
2017-11-10T16:52:38.870Z,3.77
2017-11-10T16:55:08.914Z,3.53
2017-11-10T16:57:39.709Z,3.20
2017-11-10T17:00:09.843Z,3.50
2017-11-10T17:02:39.850Z,3.50
2017-11-10T17:05:10.767Z,4.57
2017-11-10T17:07:40.568Z,3.53
2017-11-10T17:10:10.417Z,3.40
2017-11-10T17:12:40.320Z,3.17
2017-11-10T17:15:10.359Z,3.27
2017-11-10T17:17:41.212Z,3.77
2017-11-10T17:20:12.219Z,3.20
2017-11-10T17:22:42.340Z,3.70
2017-11-10T17:41:18.151Z,2.90
2017-11-10T17:43:48.146Z,2.73
2017-11-10T17:46:18.013Z,2.93
2017-11-10T17:48:49.234Z,3.50
2017-11-10T17:51:19.162Z,3.73
2017-11-10T17:53:49.203Z,3.10
2017-11-10T17:56:19.156Z,3.00
2017-11-10T17:58:49.221Z,3.10
2017-11-10T18:01:20.841Z,3.20
2017-11-10T18:03:51.914Z,3.50
2017-11-10T18:06:23.679Z,2.93
2017-11-10T18:08:54.800Z,3.77
2017-11-10T18:11:25.294Z,2.97
2017-11-10T18:13:55.825Z,3.40
2017-11-10T18:16:25.842Z,3.40
2017-11-10T18:18:55.532Z,3.80
2017-11-10T18:21:27.282Z,3.10
2017-11-10T18:23:58.457Z,3.60
2017-11-10T18:26:29.229Z,4.47
2017-11-10T18:28:58.910Z,3.50
2017-11-10T18:31:28.781Z,3.60
2017-11-10T18:33:59.135Z,4.37
2017-11-10T18:36:29.873Z,3.70
2017-11-10T18:38:59.887Z,3.40
2017-11-10T18:41:29.834Z,4.20
2017-11-10T18:44:00.045Z,3.13
2017-11-10T18:46:29.938Z,4.27
2017-11-10T18:49:05.262Z,3.50
2017-11-10T18:51:35.820Z,4.63
2017-11-10T18:54:06.565Z,3.50
2017-11-10T18:56:36.446Z,4.67
2017-11-10T18:59:06.493Z,4.50
2017-11-10T19:01:36.603Z,4.10
2017-11-10T19:04:06.448Z,4.00
2017-11-10T19:06:38.087Z,3.90
2017-11-10T19:09:07.846Z,4.77
2017-11-10T19:11:38.019Z,4.27
2017-11-10T19:14:08.225Z,4.70
2017-11-10T19:16:38.253Z,4.13
2017-11-10T19:19:08.140Z,5.40
2017-11-10T19:21:38.175Z,5.40
2017-11-10T19:24:07.984Z,5.10
2017-11-10T19:26:38.369Z,5.03
2017-11-10T19:29:08.165Z,4.60
2017-11-10T19:31:39.750Z,4.50
2017-11-10T19:34:10.567Z,4.23
2017-11-10T19:36:41.720Z,4.23
2017-11-10T19:39:11.973Z,5.03
2017-11-10T19:41:46.572Z,4.87
2017-11-10T19:44:17.284Z,4.60
2017-11-10T19:46:48.817Z,5.37
2017-11-10T19:49:18.875Z,6.10
2017-11-10T19:51:48.771Z,7.37
2017-11-10T19:54:18.842Z,6.80
2017-11-10T19:56:50.926Z,7.30
2017-11-10T19:59:20.885Z,7.57
2017-11-10T20:01:50.963Z,7.37
2017-11-10T20:04:20.857Z,7.40
2017-11-10T20:06:50.885Z,6.67
2017-11-10T20:09:21.380Z,8.03
2017-11-10T20:11:53.961Z,7.50
2017-11-10T20:14:25.357Z,6.60
2017-11-10T20:16:55.493Z,6.93
2017-11-10T20:19:26.222Z,6.60
2017-11-10T20:21:57.125Z,6.67
2017-11-10T20:24:26.965Z,7.17
2017-11-10T20:26:57.988Z,7.60
2017-11-10T20:29:27.840Z,7.00
2017-11-10T20:31:59.132Z,8.43
2017-11-10T20:34:31.061Z,8.90
2017-11-10T20:37:01.026Z,8.60
2017-11-10T20:39:30.771Z,8.70
2017-11-10T20:42:01.492Z,8.67
2017-11-10T20:44:33.406Z,8.17
2017-11-10T20:47:03.642Z,8.37
2017-11-10T20:49:34.372Z,7.47
2017-11-10T20:52:04.288Z,7.90
2017-11-10T20:54:34.082Z,8.80
2017-11-10T20:57:04.159Z,7.27
2017-11-10T20:59:34.236Z,7.37
2017-11-10T21:02:05.211Z,8.73
2017-11-10T21:04:35.230Z,6.87
2017-11-10T21:07:06.404Z,8.57
2017-11-10T21:09:36.055Z,8.07
2017-11-10T21:12:06.004Z,8.10
2017-11-10T21:14:35.978Z,8.70
2017-11-10T21:17:06.243Z,9.70
2017-11-10T21:19:37.330Z,9.30
2017-11-10T21:22:07.604Z,9.67
2017-11-10T21:24:38.416Z,10.03
2017-11-10T21:27:10.044Z,11.97
2017-11-10T21:29:41.053Z,11.87
2017-11-10T21:32:11.077Z,13.50
2017-11-10T21:34:42.120Z,13.00
2017-11-10T21:37:12.000Z,13.90
2017-11-10T21:39:41.964Z,14.17
2017-11-10T21:42:11.960Z,13.20
2017-11-10T21:44:42.014Z,14.40
2017-11-10T21:49:48.836Z,13.63
2017-11-10T21:52:18.869Z,13.33
2017-11-10T21:54:48.811Z,14.20
2017-11-10T21:57:21.012Z,14.10
2017-11-10T21:59:51.040Z,12.40
2017-11-10T22:02:20.800Z,12.97
2017-11-10T22:04:51.737Z,13.03
2017-11-10T22:07:22.976Z,13.70
2017-11-10T22:09:55.340Z,13.83
2017-11-10T22:12:25.352Z,12.37
2017-11-10T22:14:55.908Z,12.33
2017-11-10T22:17:25.982Z,12.33
2017-11-10T22:19:57.007Z,12.03
2017-11-10T22:22:27.011Z,13.70
2017-11-10T22:24:57.266Z,12.00
2017-11-10T22:27:27.431Z,12.30
2017-11-10T22:29:57.532Z,11.93
2017-11-10T22:32:27.329Z,12.23
2017-11-10T22:34:57.967Z,12.30
2017-11-10T22:37:27.790Z,12.60
2017-11-10T22:39:58.159Z,12.47
2017-11-10T22:42:28.006Z,12.90
2017-11-10T22:44:59.417Z,12.53
2017-11-10T22:47:29.439Z,13.70
2017-11-10T22:49:59.464Z,13.07
2017-11-10T22:52:30.752Z,14.17
2017-11-10T22:55:01.194Z,14.47
2017-11-10T22:57:31.052Z,15.13
2017-11-10T23:00:02.656Z,15.33
2017-11-10T23:02:32.556Z,14.73
2017-11-10T23:05:02.453Z,15.87
2017-11-10T23:07:32.237Z,16.17
2017-11-10T23:10:02.624Z,15.03
2017-11-10T23:12:33.401Z,15.40
2017-11-10T23:15:04.875Z,15.40
2017-11-10T23:17:34.889Z,15.50
2017-11-10T23:20:04.767Z,14.60
2017-11-10T23:22:34.741Z,14.00
2017-11-10T23:25:04.961Z,14.93
2017-11-10T23:27:36.513Z,14.10
2017-11-10T23:30:07.228Z,14.27
2017-11-10T23:32:37.509Z,13.63
2017-11-10T23:35:08.333Z,14.00
2017-11-10T23:37:40.506Z,13.03
2017-11-10T23:40:12.124Z,12.17
2017-11-10T23:42:43.656Z,12.50
2017-11-10T23:45:15.127Z,11.60
2017-11-10T23:47:49.152Z,11.73
2017-11-10T23:50:21.529Z,10.77
2017-11-10T23:52:53.084Z,11.07
2017-11-10T23:55:23.916Z,10.27
2017-11-10T23:57:53.657Z,9.10
